createdAt,value
2023-10-11T00:01:06.100Z,4.90
2023-10-11T00:03:36.788Z,4.97
2023-10-11T00:06:07.646Z,7.17
2023-10-11T00:08:41.895Z,5.13
2023-10-11T00:11:19.974Z,5.97
2023-10-11T00:13:49.542Z,5.53
2023-10-11T00:16:18.482Z,6.55
2023-10-11T00:18:47.119Z,6.17
2023-10-11T00:21:17.345Z,5.50
2023-10-11T00:26:17.530Z,6.17
2023-10-11T00:28:45.962Z,4.83
2023-10-11T00:31:19.748Z,7.10
2023-10-11T00:33:49.641Z,9.53
2023-10-11T00:38:53.368Z,4.37
2023-10-11T00:41:26.983Z,4.93
2023-10-11T00:43:55.875Z,7.23
2023-10-11T00:46:25.422Z,10.47
2023-10-11T00:49:01.340Z,7.63
2023-10-11T00:51:32.132Z,7.67
2023-10-11T00:54:04.853Z,7.10
2023-10-11T00:56:34.646Z,9.17
2023-10-11T00:59:10.567Z,5.80
2023-10-11T01:01:39.870Z,8.00
2023-10-11T01:04:10.496Z,8.23
2023-10-11T01:06:39.143Z,8.83
2023-10-11T01:09:17.047Z,6.63
2023-10-11T01:11:47.815Z,4.83
2023-10-11T01:14:16.365Z,9.20
2023-10-11T01:16:44.872Z,6.90
2023-10-11T01:19:17.709Z,9.60
2023-10-11T01:21:52.857Z,7.77
2023-10-11T01:24:21.558Z,9.10
2023-10-11T01:26:50.208Z,7.33
2023-10-11T01:29:18.871Z,10.07
2023-10-11T01:31:47.345Z,7.57
2023-10-11T01:34:17.619Z,6.53
2023-10-11T01:36:47.080Z,8.85
2023-10-11T01:39:17.074Z,9.60
2023-10-11T01:41:45.548Z,12.02
2023-10-11T01:44:14.125Z,8.13
2023-10-11T01:46:43.017Z,10.10
2023-10-11T01:49:12.492Z,6.53
2023-10-11T01:51:41.728Z,9.18
2023-10-11T01:54:11.876Z,8.57
2023-10-11T01:56:40.653Z,6.30
2023-10-11T01:59:13.747Z,8.90
2023-10-11T02:01:44.647Z,8.37
2023-10-11T02:04:20.247Z,9.63
2023-10-11T02:06:50.609Z,7.67
2023-10-11T02:09:25.362Z,6.97
2023-10-11T02:11:55.391Z,10.33
2023-10-11T02:14:24.661Z,10.55
2023-10-11T02:16:54.703Z,11.38
2023-10-11T02:19:25.731Z,9.27
2023-10-11T02:21:57.643Z,10.70
2023-10-11T02:24:29.015Z,9.13
2023-10-11T02:26:59.836Z,11.63
2023-10-11T02:29:30.065Z,9.33
2023-10-11T02:32:05.239Z,9.70
2023-10-11T02:34:37.076Z,12.57
2023-10-11T02:37:15.005Z,8.30
2023-10-11T02:39:45.354Z,9.73
2023-10-11T02:44:50.411Z,9.03
2023-10-11T02:47:24.638Z,10.57
2023-10-11T02:49:55.342Z,10.30
2023-10-11T02:55:14.293Z,8.03
2023-10-11T02:57:42.918Z,9.73
2023-10-11T03:00:23.868Z,16.30
2023-10-11T03:03:05.815Z,12.13
2023-10-11T03:05:34.022Z,14.03
2023-10-11T03:11:09.547Z,11.70
2023-10-11T03:13:45.150Z,11.40
2023-10-11T03:16:18.445Z,14.57
2023-10-11T03:18:49.878Z,15.70
2023-10-11T03:21:34.808Z,15.00
2023-10-11T03:24:10.417Z,18.93
2023-10-11T03:26:49.943Z,15.03
2023-10-11T03:29:23.622Z,11.73
2023-10-11T03:32:03.783Z,12.03
2023-10-11T03:37:12.009Z,12.97
2023-10-11T03:39:45.662Z,11.75
2023-10-11T03:42:24.257Z,13.83
2023-10-11T03:45:02.421Z,18.97
2023-10-11T03:47:33.351Z,13.30
2023-10-11T03:50:08.808Z,17.60
2023-10-11T03:52:41.831Z,17.10
2023-10-11T03:55:13.191Z,12.97
2023-10-11T03:57:47.988Z,16.13
2023-10-11T04:00:27.474Z,14.83
2023-10-11T04:03:00.424Z,13.83
2023-10-11T04:05:35.903Z,19.67
2023-10-11T04:08:14.154Z,15.17
2023-10-11T04:10:47.713Z,20.47
2023-10-11T04:13:20.969Z,15.67
2023-10-11T04:15:50.845Z,16.73
2023-10-11T04:18:36.004Z,14.80
2023-10-11T04:21:39.757Z,15.43
2023-10-11T04:24:11.277Z,16.60
2023-10-11T04:26:41.133Z,16.60
2023-10-11T04:29:20.395Z,18.63
2023-10-11T04:32:15.714Z,17.73
2023-10-11T04:34:57.299Z,13.73
2023-10-11T04:37:31.676Z,17.77
2023-10-11T04:40:17.804Z,14.83
2023-10-11T04:42:46.586Z,17.83
2023-10-11T04:45:24.159Z,17.20
2023-10-11T04:47:55.581Z,16.00
2023-10-11T04:50:26.709Z,14.70
2023-10-11T04:52:58.010Z,21.57
2023-10-11T04:55:36.842Z,17.10
2023-10-11T04:58:08.695Z,16.80
2023-10-11T05:00:48.733Z,16.93
2023-10-11T05:03:19.877Z,17.77
2023-10-11T05:06:00.809Z,17.43
2023-10-11T05:08:45.955Z,14.43
2023-10-11T05:11:31.010Z,16.33
2023-10-11T05:14:12.049Z,12.13
2023-10-11T05:16:46.690Z,20.80
2023-10-11T05:19:22.850Z,15.43
2023-10-11T05:22:04.226Z,20.93
2023-10-11T05:24:45.650Z,21.30
2023-10-11T05:27:34.926Z,21.10
2023-10-11T05:30:18.101Z,20.53
2023-10-11T05:32:51.806Z,20.30
2023-10-11T05:35:54.763Z,18.10
2023-10-11T05:38:41.988Z,16.83
2023-10-11T05:41:30.094Z,16.50
2023-10-11T05:44:19.933Z,21.53
2023-10-11T05:47:05.808Z,20.80
2023-10-11T05:49:55.938Z,20.73
2023-10-11T05:52:26.786Z,19.70
2023-10-11T05:54:55.424Z,18.50
2023-10-11T05:57:29.752Z,16.17
2023-10-11T06:00:07.138Z,18.30
2023-10-11T06:02:37.135Z,17.73
2023-10-11T06:05:12.043Z,18.80
2023-10-11T06:07:46.454Z,24.83
2023-10-11T06:10:21.157Z,21.10
2023-10-11T06:12:49.584Z,23.07
2023-10-11T06:15:21.571Z,17.83
2023-10-11T06:17:50.706Z,17.43
2023-10-11T06:20:29.032Z,18.67
2023-10-11T06:23:03.580Z,21.43
2023-10-11T06:25:46.158Z,19.67
2023-10-11T06:28:19.607Z,18.00
2023-10-11T06:30:49.086Z,21.47
2023-10-11T06:33:24.126Z,19.45
2023-10-11T06:35:55.477Z,16.63
2023-10-11T06:38:31.848Z,17.75
2023-10-11T06:41:13.902Z,17.17
2023-10-11T06:43:42.702Z,22.63
2023-10-11T06:46:12.475Z,23.63
2023-10-11T06:48:41.298Z,18.13
2023-10-11T06:51:15.171Z,18.33
2023-10-11T06:53:48.046Z,20.10
2023-10-11T06:56:18.487Z,20.83
2023-10-11T07:01:17.602Z,17.83
2023-10-11T07:03:48.785Z,20.42
2023-10-11T07:06:23.722Z,20.23
2023-10-11T07:08:54.809Z,18.97
2023-10-11T07:11:42.396Z,20.48
2023-10-11T07:14:17.035Z,15.68
2023-10-11T07:16:46.433Z,22.40
2023-10-11T07:19:17.124Z,19.17
2023-10-11T07:21:55.123Z,20.50
2023-10-11T07:24:34.295Z,17.85
2023-10-11T07:27:11.366Z,17.00
2023-10-11T07:29:47.467Z,18.77
2023-10-11T07:32:20.454Z,21.83
2023-10-11T07:34:49.958Z,22.08
2023-10-11T07:37:21.160Z,21.10
2023-10-11T07:39:53.851Z,17.63
2023-10-11T07:42:28.593Z,16.83
2023-10-11T07:45:02.312Z,21.25
2023-10-11T07:47:35.512Z,17.92
2023-10-11T07:50:04.788Z,20.77
2023-10-11T07:52:36.089Z,19.20
2023-10-11T07:55:08.729Z,18.10
2023-10-11T07:57:46.097Z,23.13
2023-10-11T08:00:18.860Z,15.65
2023-10-11T08:02:57.919Z,19.27
2023-10-11T08:05:26.834Z,19.88
2023-10-11T08:08:02.387Z,20.15
2023-10-11T08:10:35.162Z,17.50
2023-10-11T08:13:06.129Z,17.98
2023-10-11T08:15:40.171Z,20.65
2023-10-11T08:18:08.916Z,20.92
2023-10-11T08:20:37.632Z,16.40
2023-10-11T08:23:09.672Z,18.27
2023-10-11T08:25:40.999Z,18.88
2023-10-11T08:28:14.933Z,20.75
2023-10-11T08:30:46.926Z,16.60
2023-10-11T08:33:15.749Z,22.00
2023-10-11T08:35:47.606Z,21.98
2023-10-11T08:38:20.395Z,15.80
2023-10-11T08:40:51.705Z,14.32
2023-10-11T08:43:20.245Z,15.45
2023-10-11T08:45:50.849Z,17.92
2023-10-11T08:48:19.862Z,20.70
2023-10-11T08:50:53.324Z,16.73
2023-10-11T08:53:23.113Z,19.30
2023-10-11T08:55:56.300Z,19.38
2023-10-11T08:58:29.105Z,18.00
2023-10-11T09:00:57.828Z,19.70
2023-10-11T09:03:29.703Z,17.40
2023-10-11T09:06:00.939Z,18.42
2023-10-11T09:08:34.740Z,17.73
2023-10-11T09:11:14.451Z,16.08
2023-10-11T09:13:42.991Z,19.17
2023-10-11T09:16:14.235Z,17.33
2023-10-11T09:18:47.497Z,19.23
2023-10-11T09:21:19.120Z,15.40
2023-10-11T09:23:49.165Z,19.52
2023-10-11T09:26:41.662Z,18.20
2023-10-11T09:29:17.737Z,15.20
2023-10-11T09:31:59.737Z,19.33
2023-10-11T09:34:31.401Z,15.68
2023-10-11T09:37:00.213Z,16.00
2023-10-11T09:39:31.020Z,13.05
2023-10-11T09:42:06.698Z,19.92
2023-10-11T09:44:38.732Z,20.05
2023-10-11T09:47:07.440Z,16.15
2023-10-11T09:49:43.518Z,14.23
2023-10-11T09:52:16.508Z,15.30
2023-10-11T09:54:47.318Z,13.55
2023-10-11T09:57:30.470Z,14.65
2023-10-11T10:00:10.298Z,12.85
2023-10-11T10:02:46.591Z,15.85
2023-10-11T10:05:28.521Z,14.88
2023-10-11T10:08:00.873Z,15.60
2023-10-11T10:10:57.279Z,11.27
2023-10-11T10:13:26.491Z,14.07
2023-10-11T10:15:54.755Z,16.85
2023-10-11T10:18:24.670Z,18.70
2023-10-11T10:21:03.806Z,16.67
2023-10-11T10:23:34.665Z,16.25
2023-10-11T10:26:33.343Z,19.15
2023-10-11T10:29:01.923Z,14.88
2023-10-11T10:31:34.942Z,18.35
2023-10-11T10:34:26.278Z,17.98
2023-10-11T10:36:56.146Z,17.95
2023-10-11T10:39:40.913Z,15.32
2023-10-11T10:42:16.929Z,15.10
2023-10-11T10:45:03.411Z,13.15
2023-10-11T10:47:34.261Z,10.98
2023-10-11T10:50:23.288Z,11.57
2023-10-11T10:52:54.811Z,11.60
2023-10-11T10:55:23.070Z,12.98
2023-10-11T10:57:57.190Z,11.18
2023-10-11T11:00:28.836Z,10.48
2023-10-11T11:02:58.127Z,9.68
2023-10-11T11:05:29.937Z,7.95
2023-10-11T11:08:20.320Z,10.48
2023-10-11T11:10:56.310Z,10.15
2023-10-11T11:13:27.982Z,8.90
2023-10-11T11:15:57.100Z,8.15
2023-10-11T11:18:35.714Z,9.70
2023-10-11T11:21:21.404Z,10.88
2023-10-11T11:23:50.870Z,11.18
2023-10-11T11:26:32.351Z,10.17
2023-10-11T11:29:10.882Z,8.95
2023-10-11T11:31:54.818Z,9.65
2023-10-11T11:34:29.314Z,8.02
2023-10-11T11:37:14.894Z,9.07
2023-10-11T11:39:51.849Z,12.77
2023-10-11T11:42:21.980Z,9.73
2023-10-11T11:44:51.014Z,7.00
2023-10-11T11:47:25.610Z,7.47
2023-10-11T11:49:55.069Z,7.82
2023-10-11T11:52:23.535Z,7.65
2023-10-11T11:54:51.595Z,6.88
2023-10-11T11:57:22.989Z,6.38
2023-10-11T11:59:52.603Z,7.40
2023-10-11T12:02:19.683Z,7.70
2023-10-11T12:04:49.098Z,6.72
2023-10-11T12:07:18.361Z,7.47
2023-10-11T12:10:02.202Z,8.32
2023-10-11T12:12:35.210Z,6.55
2023-10-11T12:15:05.122Z,8.45
2023-10-11T12:17:35.770Z,7.47
2023-10-11T12:20:13.725Z,7.60
2023-10-11T12:22:45.933Z,5.10
2023-10-11T12:25:14.725Z,4.38
2023-10-11T12:27:43.157Z,4.82
2023-10-11T12:30:23.192Z,5.18
2023-10-11T12:32:53.753Z,2.92
2023-10-11T12:35:25.298Z,4.30
2023-10-11T12:37:53.509Z,3.78
2023-10-11T12:40:29.937Z,3.58
2023-10-11T12:42:58.061Z,3.33
2023-10-11T12:45:30.437Z,2.78
2023-10-11T12:47:58.984Z,2.70
2023-10-11T12:50:27.674Z,5.03
2023-10-11T12:52:55.746Z,6.53
2023-10-11T12:55:29.180Z,2.28
2023-10-11T12:57:57.070Z,2.53
2023-10-11T13:00:36.267Z,4.65
2023-10-11T13:03:20.098Z,3.92
2023-10-11T13:05:48.624Z,2.88
2023-10-11T13:08:18.014Z,2.35
2023-10-11T13:10:47.306Z,1.80
2023-10-11T13:13:16.874Z,3.40
2023-10-11T13:15:56.812Z,5.60
2023-10-11T13:18:28.154Z,3.28
2023-10-11T13:20:57.760Z,1.98
2023-10-11T13:23:31.566Z,1.33
2023-10-11T13:26:02.286Z,0.57
2023-10-11T13:28:34.504Z,4.07
2023-10-11T13:31:08.383Z,0.55
2023-10-11T13:33:44.021Z,0.93
2023-10-11T13:36:14.184Z,1.27
2023-10-11T13:41:15.965Z,1.10
2023-10-11T13:44:01.438Z,4.25
2023-10-11T13:46:29.533Z,2.55
2023-10-11T13:49:10.552Z,2.20
2023-10-11T13:51:39.289Z,1.23
2023-10-11T13:54:20.051Z,1.15
2023-10-11T13:56:48.918Z,1.40
2023-10-11T13:59:23.153Z,2.25
2023-10-11T14:02:00.627Z,2.65
2023-10-11T14:04:48.998Z,1.42
2023-10-11T14:07:29.202Z,1.80
2023-10-11T14:09:58.771Z,4.18
2023-10-11T14:12:30.412Z,1.67
2023-10-11T14:14:58.964Z,3.45
2023-10-11T14:17:27.498Z,4.30
2023-10-11T14:20:00.688Z,4.85
2023-10-11T14:22:29.653Z,5.63
2023-10-11T14:25:00.724Z,5.75
2023-10-11T14:27:31.209Z,3.25
2023-10-11T14:29:59.544Z,3.22
2023-10-11T14:32:27.601Z,3.72
2023-10-11T14:34:57.787Z,2.28
2023-10-11T14:37:26.767Z,4.40
2023-10-11T14:39:54.757Z,5.57
2023-10-11T14:42:23.186Z,4.35
2023-10-11T14:44:51.719Z,2.88
2023-10-11T14:47:19.894Z,7.20
2023-10-11T14:49:47.892Z,5.32
2023-10-11T14:52:19.627Z,4.30
2023-10-11T14:54:49.660Z,4.93
2023-10-11T14:57:18.150Z,2.20
2023-10-11T14:59:47.203Z,6.17
2023-10-11T15:02:18.177Z,6.00
2023-10-11T15:04:46.302Z,4.23
2023-10-11T15:07:19.816Z,8.10
2023-10-11T15:09:50.005Z,5.67
2023-10-11T15:12:18.257Z,6.85
2023-10-11T15:14:49.066Z,2.90
2023-10-11T15:17:19.996Z,5.00
2023-10-11T15:19:48.441Z,7.07
2023-10-11T15:22:16.600Z,3.57
2023-10-11T15:24:44.611Z,7.27
2023-10-11T15:27:16.084Z,4.70
2023-10-11T15:29:45.910Z,7.27
2023-10-11T15:32:14.505Z,6.03
2023-10-11T15:34:42.710Z,9.73
2023-10-11T15:37:11.333Z,5.23
2023-10-11T15:39:40.457Z,6.30
2023-10-11T15:42:09.930Z,7.23
2023-10-11T15:44:40.403Z,5.05
2023-10-11T15:49:37.218Z,8.60
2023-10-11T15:52:06.296Z,8.77
2023-10-11T15:54:35.123Z,5.93
2023-10-11T15:57:05.241Z,8.60
2023-10-11T15:59:34.788Z,8.52
2023-10-11T16:02:07.020Z,7.67
2023-10-11T16:04:35.703Z,7.80
2023-10-11T16:07:06.598Z,5.83
2023-10-11T16:09:36.463Z,11.47
2023-10-11T16:12:05.107Z,12.75
2023-10-11T16:14:33.428Z,8.50
2023-10-11T16:17:03.794Z,9.77
2023-10-11T16:22:00.828Z,13.10
2023-10-11T16:24:29.460Z,8.33
2023-10-11T16:26:57.757Z,10.93
2023-10-11T16:29:26.478Z,16.60
2023-10-11T16:31:54.639Z,14.27
2023-10-11T16:34:22.839Z,12.07
2023-10-11T16:36:52.206Z,9.03
2023-10-11T16:39:33.057Z,8.73
2023-10-11T16:42:03.864Z,7.90
2023-10-11T16:44:32.713Z,9.73
2023-10-11T16:47:04.353Z,14.40
2023-10-11T16:49:32.387Z,13.17
2023-10-11T16:52:04.358Z,14.40
2023-10-11T16:54:38.313Z,12.57
2023-10-11T16:57:07.989Z,10.30
2023-10-11T16:59:36.344Z,14.50
2023-10-11T17:02:05.617Z,12.47
2023-10-11T17:04:33.975Z,14.03
2023-10-11T17:07:09.087Z,11.50
2023-10-11T17:09:37.325Z,12.47
2023-10-11T17:12:06.418Z,11.70
2023-10-11T17:14:34.784Z,13.53
2023-10-11T17:17:02.963Z,9.87
2023-10-11T17:19:31.230Z,12.77
2023-10-11T17:21:59.251Z,8.93
2023-10-11T17:24:28.862Z,10.03
2023-10-11T17:26:57.868Z,7.10
2023-10-11T17:29:27.215Z,10.80
2023-10-11T17:31:55.373Z,11.35
2023-10-11T17:34:23.527Z,9.30
2023-10-11T17:36:51.699Z,11.13
2023-10-11T17:39:19.910Z,10.67
2023-10-11T17:41:49.274Z,14.03
2023-10-11T17:44:17.769Z,8.13
2023-10-11T17:46:46.198Z,7.60
2023-10-11T17:49:14.325Z,10.07
2023-10-11T17:51:44.829Z,12.07
2023-10-11T17:54:13.833Z,12.37
2023-10-11T17:56:41.818Z,6.90
2023-10-11T17:59:12.339Z,11.47
2023-10-11T18:01:45.234Z,11.40
2023-10-11T18:04:15.420Z,9.83
2023-10-11T18:06:43.794Z,10.15
2023-10-11T18:09:13.687Z,14.57
2023-10-11T18:11:42.725Z,12.63
2023-10-11T18:14:12.289Z,10.97
2023-10-11T18:16:40.519Z,14.82
2023-10-11T18:19:11.532Z,13.97
2023-10-11T18:21:45.012Z,10.37
2023-10-11T18:24:16.130Z,8.10
2023-10-11T18:26:44.252Z,13.07
2023-10-11T18:29:13.639Z,11.50
2023-10-11T18:31:41.741Z,10.20
2023-10-11T18:34:09.967Z,16.63
2023-10-11T18:36:38.984Z,10.13
2023-10-11T18:39:09.158Z,15.67
2023-10-11T18:41:37.401Z,11.57
2023-10-11T18:44:05.740Z,10.30
2023-10-11T18:46:36.016Z,11.60
2023-10-11T18:51:31.926Z,10.90
2023-10-11T18:54:00.348Z,11.13
2023-10-11T18:56:29.005Z,9.17
2023-10-11T18:58:57.382Z,13.23
2023-10-11T19:01:27.957Z,19.33
2023-10-11T19:03:57.514Z,10.50
2023-10-11T19:06:27.536Z,11.23
2023-10-11T19:08:56.580Z,10.90
2023-10-11T19:11:29.395Z,12.83
2023-10-11T19:13:57.368Z,11.83
2023-10-11T19:16:26.767Z,8.33
2023-10-11T19:18:58.011Z,9.93
2023-10-11T19:21:26.910Z,20.23
2023-10-11T19:23:55.352Z,8.93
2023-10-11T19:26:24.424Z,11.40
2023-10-11T19:28:52.992Z,11.70
2023-10-11T19:31:20.904Z,9.93
2023-10-11T19:33:50.051Z,10.57
2023-10-11T19:36:19.928Z,11.10
2023-10-11T19:38:49.468Z,12.27
2023-10-11T19:41:17.908Z,8.15
2023-10-11T19:43:46.037Z,11.03
2023-10-11T19:46:14.793Z,10.00
2023-10-11T19:48:43.476Z,10.17
2023-10-11T19:51:12.230Z,11.60
2023-10-11T19:53:41.870Z,11.40
2023-10-11T19:56:18.619Z,12.50
2023-10-11T19:58:48.917Z,12.67
2023-10-11T20:01:21.837Z,17.90
2023-10-11T20:03:55.387Z,12.70
2023-10-11T20:06:25.057Z,12.13
2023-10-11T20:08:55.005Z,10.95
2023-10-11T20:11:23.357Z,11.57
2023-10-11T20:13:52.311Z,11.03
2023-10-11T20:16:20.387Z,12.07
2023-10-11T20:18:51.281Z,10.13
2023-10-11T20:21:21.026Z,9.83
2023-10-11T20:23:51.116Z,13.77
2023-10-11T20:26:23.475Z,11.30
2023-10-11T20:28:52.960Z,9.57
2023-10-11T20:31:21.113Z,10.70
2023-10-11T20:33:51.584Z,12.03
2023-10-11T20:36:20.074Z,10.17
2023-10-11T20:38:49.272Z,9.83
2023-10-11T20:41:19.884Z,16.03
2023-10-11T20:43:50.234Z,11.50
2023-10-11T20:46:18.998Z,11.77
2023-10-11T20:48:47.259Z,10.47
2023-10-11T20:51:16.992Z,15.03
2023-10-11T20:53:46.203Z,9.02
2023-10-11T20:56:14.578Z,10.73
2023-10-11T20:58:56.641Z,7.50
2023-10-11T21:01:27.778Z,13.70
2023-10-11T21:03:57.402Z,7.57
2023-10-11T21:06:26.843Z,11.50
2023-10-11T21:08:54.964Z,8.43
2023-10-11T21:11:23.851Z,6.60
2023-10-11T21:13:52.178Z,13.67
2023-10-11T21:16:20.767Z,8.63
2023-10-11T21:18:51.478Z,10.27
2023-10-11T21:21:20.755Z,9.80
2023-10-11T21:23:48.925Z,14.47
2023-10-11T21:26:17.380Z,10.37
2023-10-11T21:28:54.634Z,12.23
2023-10-11T21:31:23.814Z,13.87
2023-10-11T21:33:55.543Z,10.87
2023-10-11T21:36:24.614Z,11.23
2023-10-11T21:38:52.868Z,11.53
2023-10-11T21:41:22.826Z,12.13
2023-10-11T21:43:54.905Z,10.82
2023-10-11T21:46:26.202Z,13.17
2023-10-11T21:48:56.068Z,13.20
2023-10-11T21:51:25.816Z,15.00
2023-10-11T21:53:55.530Z,18.50
2023-10-11T21:56:23.644Z,15.63
2023-10-11T21:58:52.304Z,14.07
2023-10-11T22:01:25.338Z,16.13
2023-10-11T22:03:59.581Z,9.77
2023-10-11T22:06:28.257Z,14.73
2023-10-11T22:08:57.586Z,9.73
2023-10-11T22:11:28.604Z,10.73
2023-10-11T22:13:57.951Z,10.70
2023-10-11T22:16:26.402Z,13.52
2023-10-11T22:19:01.121Z,11.90
2023-10-11T22:21:31.212Z,14.60
2023-10-11T22:24:01.468Z,12.55
2023-10-11T22:26:29.417Z,17.55
2023-10-11T22:28:57.456Z,12.43
2023-10-11T22:31:26.035Z,10.77
2023-10-11T22:33:56.078Z,12.23
2023-10-11T22:36:28.412Z,11.85
2023-10-11T22:38:56.720Z,9.97
2023-10-11T22:41:25.764Z,14.90
2023-10-11T22:43:58.692Z,12.88
2023-10-11T22:46:27.073Z,18.03
2023-10-11T22:48:56.505Z,17.47
2023-10-11T22:51:28.815Z,15.10
2023-10-11T22:54:02.005Z,10.27
2023-10-11T22:56:32.192Z,14.20
2023-10-11T22:59:06.211Z,17.10
2023-10-11T23:01:38.483Z,18.20
2023-10-11T23:04:10.312Z,17.37
2023-10-11T23:06:39.014Z,11.17
2023-10-11T23:09:08.183Z,14.57
2023-10-11T23:11:37.864Z,19.23
2023-10-11T23:14:07.184Z,14.63
2023-10-11T23:16:36.736Z,20.23
2023-10-11T23:19:20.644Z,13.73
2023-10-11T23:21:53.008Z,13.83
2023-10-11T23:24:32.858Z,13.83
2023-10-11T23:27:02.607Z,17.10
2023-10-11T23:29:35.849Z,18.10
2023-10-11T23:32:04.756Z,19.20
2023-10-11T23:34:34.086Z,13.80
2023-10-11T23:37:06.612Z,11.77
2023-10-11T23:39:36.451Z,18.97
2023-10-11T23:42:16.903Z,20.63
2023-10-11T23:44:45.805Z,19.95
2023-10-11T23:47:24.273Z,15.50
2023-10-11T23:49:56.732Z,19.10
2023-10-11T23:52:29.384Z,13.07
2023-10-11T23:54:58.055Z,19.70
2023-10-11T23:57:33.693Z,21.20
